createdAt,value
2023-02-08T00:02:21.450Z,-9.34
2023-02-08T00:05:27.556Z,-8.97
2023-02-08T00:08:34.353Z,-8.87
2023-02-08T00:11:42.472Z,-9.58
2023-02-08T00:14:48.670Z,-9.54
2023-02-08T00:17:55.063Z,-9.72
2023-02-08T00:21:01.753Z,-9.05
2023-02-08T00:24:08.549Z,-8.46
2023-02-08T00:27:16.405Z,-8.39
2023-02-08T00:30:22.925Z,-8.30
2023-02-08T00:33:29.377Z,-8.11
2023-02-08T00:36:35.970Z,-9.26
2023-02-08T00:39:42.030Z,-8.95
2023-02-08T00:42:50.038Z,-9.22
2023-02-08T00:45:56.798Z,-9.41
2023-02-08T00:49:04.035Z,-9.34
2023-02-08T00:52:10.342Z,-8.78
2023-02-08T00:55:17.087Z,-8.53
2023-02-08T00:58:25.296Z,-8.84
2023-02-08T01:01:31.374Z,-8.60
2023-02-08T01:04:38.000Z,-8.40
2023-02-08T01:07:43.920Z,-8.42
2023-02-08T01:10:50.196Z,-8.46
2023-02-08T01:13:58.637Z,-8.66
2023-02-08T01:17:05.033Z,-8.86
2023-02-08T01:20:12.793Z,-8.39
2023-02-08T01:23:19.103Z,-9.08
2023-02-08T01:26:26.755Z,-8.77
2023-02-08T01:29:34.705Z,-9.05
2023-02-08T01:32:41.134Z,-8.51
2023-02-08T01:35:50.982Z,-8.59
2023-02-08T01:38:57.498Z,-8.56
2023-02-08T01:42:03.679Z,-9.10
2023-02-08T01:45:30.261Z,-9.89
2023-02-08T01:48:40.092Z,-9.52
2023-02-08T01:51:51.381Z,-9.15
2023-02-08T01:55:01.544Z,-9.42
2023-02-08T01:58:12.439Z,-9.01
2023-02-08T02:01:20.040Z,-9.84
2023-02-08T02:04:28.503Z,-10.22
2023-02-08T02:07:35.039Z,-9.58
2023-02-08T02:10:43.560Z,-9.19
2023-02-08T02:13:51.187Z,-9.41
2023-02-08T02:17:00.962Z,-9.57
2023-02-08T02:20:15.854Z,-9.10
2023-02-08T02:23:58.398Z,-9.96
2023-02-08T02:27:33.043Z,-9.28
2023-02-08T02:31:21.806Z,-9.03
2023-02-08T02:34:39.710Z,-9.19
2023-02-08T02:37:56.303Z,-9.28
2023-02-08T02:41:11.601Z,-9.54
2023-02-08T02:44:25.080Z,-8.90
2023-02-08T02:47:38.783Z,-9.01
2023-02-08T02:50:49.706Z,-8.93
2023-02-08T02:54:02.288Z,-9.59
2023-02-08T02:57:12.506Z,-9.79
2023-02-08T03:00:24.724Z,-10.04
2023-02-08T03:03:34.444Z,-9.78
2023-02-08T03:06:56.479Z,-9.45
2023-02-08T03:10:14.700Z,-10.16
2023-02-08T03:13:32.671Z,-9.50
2023-02-08T03:16:56.920Z,-10.45
2023-02-08T03:20:08.768Z,-9.96
2023-02-08T03:23:23.900Z,-9.65
2023-02-08T03:26:37.540Z,-9.68
2023-02-08T03:29:51.246Z,-10.07
2023-02-08T03:33:02.803Z,-10.61
2023-02-08T03:36:16.109Z,-11.00
2023-02-08T03:39:27.935Z,-10.93
2023-02-08T03:42:36.575Z,-10.65
2023-02-08T03:45:47.687Z,-10.24
2023-02-08T03:49:00.179Z,-10.12
2023-02-08T03:52:09.898Z,-10.27
2023-02-08T03:55:21.614Z,-9.72
2023-02-08T03:58:33.751Z,-9.37
2023-02-08T04:01:45.604Z,-9.44
2023-02-08T04:04:53.829Z,-9.23
2023-02-08T04:08:00.128Z,-9.67
2023-02-08T04:11:07.718Z,-9.49
2023-02-08T04:14:14.215Z,-9.71
2023-02-08T04:17:20.194Z,-9.84
2023-02-08T04:20:26.363Z,-10.06
2023-02-08T04:23:32.787Z,-9.86
2023-02-08T04:26:40.450Z,-10.86
2023-02-08T04:29:46.875Z,-11.08
2023-02-08T04:32:53.424Z,-11.12
2023-02-08T04:35:59.836Z,-10.24
2023-02-08T04:39:06.218Z,-9.56
2023-02-08T04:42:14.092Z,-9.63
2023-02-08T04:45:20.323Z,-10.41
2023-02-08T04:48:26.670Z,-9.90
2023-02-08T04:51:32.868Z,-9.82
2023-02-08T04:54:40.879Z,-10.49
2023-02-08T04:57:48.536Z,-10.36
2023-02-08T05:00:55.321Z,-10.78
2023-02-08T05:04:01.570Z,-10.65
2023-02-08T05:07:07.915Z,-11.16
2023-02-08T05:10:14.255Z,-10.69
2023-02-08T05:13:22.189Z,-10.35
2023-02-08T05:16:28.650Z,-10.64
2023-02-08T05:19:34.789Z,-10.47
2023-02-08T05:22:41.799Z,-10.46
2023-02-08T05:25:47.809Z,-11.22
2023-02-08T05:28:55.457Z,-10.42
2023-02-08T05:32:01.726Z,-10.41
2023-02-08T05:35:08.684Z,-10.17
2023-02-08T05:38:14.778Z,-10.11
2023-02-08T05:41:21.229Z,-9.51
2023-02-08T05:44:29.168Z,-10.14
2023-02-08T05:47:35.782Z,-9.45
2023-02-08T05:50:42.575Z,-9.87
2023-02-08T05:53:49.350Z,-10.08
2023-02-08T05:56:55.555Z,-9.54
2023-02-08T06:00:03.855Z,-9.74
2023-02-08T06:03:10.169Z,-9.32
2023-02-08T06:06:16.503Z,-9.43
2023-02-08T06:09:23.250Z,-9.05
2023-02-08T06:12:29.456Z,-9.28
2023-02-08T06:15:37.322Z,-8.95
2023-02-08T06:18:43.713Z,-9.24
2023-02-08T06:21:50.037Z,-8.80
2023-02-08T06:24:56.399Z,-10.09
2023-02-08T06:28:03.267Z,-9.40
2023-02-08T06:31:11.251Z,-9.80
2023-02-08T06:34:17.158Z,-9.36
2023-02-08T06:37:23.113Z,-9.68
2023-02-08T06:40:29.543Z,-8.96
2023-02-08T06:43:35.680Z,-8.59
2023-02-08T06:46:43.169Z,-8.83
2023-02-08T06:49:49.497Z,-9.70
2023-02-08T06:52:55.817Z,-8.97
2023-02-08T06:56:02.086Z,-9.39
2023-02-08T06:59:08.367Z,-8.85
2023-02-08T07:02:18.861Z,-9.52
2023-02-08T07:05:25.356Z,-8.89
2023-02-08T07:08:31.980Z,-8.56
2023-02-08T07:11:38.281Z,-8.60
2023-02-08T07:14:45.152Z,-8.75
2023-02-08T07:17:52.816Z,-7.77
2023-02-08T07:20:59.404Z,-8.13
2023-02-08T07:24:05.444Z,-7.05
2023-02-08T07:27:14.392Z,-6.97
2023-02-08T07:30:20.762Z,-7.25
2023-02-08T07:33:28.473Z,-6.46
2023-02-08T07:36:35.843Z,-6.92
2023-02-08T07:39:42.213Z,-6.79
2023-02-08T07:42:48.621Z,-6.46
2023-02-08T07:45:55.201Z,-5.83
2023-02-08T07:49:03.240Z,-5.93
2023-02-08T07:52:09.531Z,-5.88
2023-02-08T07:55:17.298Z,-5.47
2023-02-08T07:58:23.345Z,-5.21
2023-02-08T08:01:29.797Z,-5.16
2023-02-08T08:04:37.524Z,-4.45
2023-02-08T08:07:43.768Z,-4.54
2023-02-08T08:10:50.389Z,-4.79
2023-02-08T08:13:56.760Z,-5.14
2023-02-08T08:17:03.108Z,-4.48
2023-02-08T08:20:12.718Z,-4.08
2023-02-08T08:23:19.753Z,-4.28
2023-02-08T08:26:25.998Z,-3.71
2023-02-08T08:29:33.592Z,-3.77
2023-02-08T08:32:39.821Z,-3.69
2023-02-08T08:35:47.512Z,-3.05
2023-02-08T08:38:54.121Z,-2.84
2023-02-08T08:42:01.703Z,-3.14
2023-02-08T08:45:09.465Z,-2.99
2023-02-08T08:48:15.786Z,-3.18
2023-02-08T08:51:23.426Z,-2.77
2023-02-08T08:54:29.523Z,-2.17
2023-02-08T08:57:35.536Z,-2.38
2023-02-08T09:00:42.022Z,-2.27
2023-02-08T09:03:48.516Z,-1.64
2023-02-08T09:06:56.012Z,-1.76
2023-02-08T09:10:02.209Z,-1.68
2023-02-08T09:13:08.567Z,-1.61
2023-02-08T09:16:17.490Z,-1.16
2023-02-08T09:19:23.481Z,-1.34
2023-02-08T09:22:31.466Z,-1.34
2023-02-08T09:25:38.296Z,-1.74
2023-02-08T09:28:44.261Z,-1.24
2023-02-08T09:31:50.840Z,-1.09
2023-02-08T09:34:57.908Z,-0.91
2023-02-08T09:38:05.929Z,-0.74
2023-02-08T09:41:29.653Z,-0.49
2023-02-08T09:44:46.880Z,-1.08
2023-02-08T09:48:01.555Z,-0.88
2023-02-08T09:51:17.326Z,-0.35
2023-02-08T09:54:31.427Z,-0.32
2023-02-08T09:57:38.575Z,-0.34
2023-02-08T10:00:50.824Z,-0.69
2023-02-08T10:04:00.797Z,0.04
2023-02-08T10:07:07.286Z,0.86
2023-02-08T10:10:21.728Z,0.07
2023-02-08T10:13:55.792Z,1.15
2023-02-08T10:17:11.275Z,0.72
2023-02-08T10:20:38.418Z,1.14
2023-02-08T10:24:15.757Z,0.66
2023-02-08T10:27:29.720Z,1.37
2023-02-08T10:30:46.579Z,1.02
2023-02-08T10:34:00.689Z,0.58
2023-02-08T10:37:18.941Z,1.35
2023-02-08T10:40:32.773Z,0.90
2023-02-08T10:43:44.848Z,1.71
2023-02-08T10:46:57.770Z,1.45
2023-02-08T10:50:15.028Z,0.41
2023-02-08T10:53:21.587Z,2.65
2023-02-08T10:56:58.044Z,0.81
2023-02-08T11:00:12.786Z,2.36
2023-02-08T11:03:25.123Z,1.68
2023-02-08T11:06:36.430Z,0.55
2023-02-08T11:09:42.964Z,1.89
2023-02-08T11:12:57.098Z,0.92
2023-02-08T11:16:06.830Z,1.19
2023-02-08T11:19:22.993Z,1.71
2023-02-08T11:22:32.556Z,0.86
2023-02-08T11:25:43.934Z,1.13
2023-02-08T11:29:02.074Z,0.68
2023-02-08T11:32:19.297Z,0.68
2023-02-08T11:35:39.880Z,1.23
2023-02-08T11:38:49.594Z,0.70
2023-02-08T11:42:00.781Z,0.66
2023-02-08T11:45:10.064Z,0.52
2023-02-08T11:48:24.552Z,0.63
2023-02-08T11:51:35.640Z,1.91
2023-02-08T11:54:43.253Z,0.50
2023-02-08T11:57:54.997Z,1.74
2023-02-08T12:01:03.938Z,0.63
2023-02-08T12:04:13.874Z,0.59
2023-02-08T12:07:24.285Z,0.12
2023-02-08T12:10:56.268Z,0.33
2023-02-08T12:14:27.961Z,0.28
2023-02-08T12:18:07.661Z,0.27
2023-02-08T12:21:20.509Z,1.06
2023-02-08T12:24:34.198Z,1.33
2023-02-08T12:27:47.381Z,1.45
2023-02-08T12:31:04.513Z,1.11
2023-02-08T12:34:18.817Z,1.92
2023-02-08T12:37:55.091Z,2.64
2023-02-08T12:41:14.745Z,3.05
2023-02-08T12:44:34.266Z,2.33
2023-02-08T12:48:03.735Z,1.52
2023-02-08T12:51:23.147Z,2.61
2023-02-08T12:54:36.517Z,2.23
2023-02-08T12:57:46.227Z,2.94
2023-02-08T13:00:55.872Z,3.95
2023-02-08T13:04:06.172Z,1.59
2023-02-08T13:07:17.454Z,2.94
2023-02-08T13:10:30.718Z,2.36
2023-02-08T13:13:40.740Z,1.43
2023-02-08T13:16:51.805Z,1.27
2023-02-08T13:20:02.620Z,1.09
2023-02-08T13:23:19.449Z,2.52
2023-02-08T13:26:31.724Z,1.13
2023-02-08T13:29:39.224Z,2.57
2023-02-08T13:32:48.209Z,0.93
2023-02-08T13:35:55.755Z,0.79
2023-02-08T13:39:04.563Z,0.84
2023-02-08T13:42:22.791Z,0.93
2023-02-08T13:45:31.037Z,1.67
2023-02-08T13:48:47.456Z,2.98
2023-02-08T13:51:54.930Z,3.00
2023-02-08T13:55:36.046Z,2.94
2023-02-08T13:59:24.915Z,3.21
2023-02-08T14:02:31.738Z,3.50
2023-02-08T14:05:53.349Z,3.42
2023-02-08T14:09:08.335Z,2.99
2023-02-08T14:12:22.880Z,2.50
2023-02-08T14:15:33.535Z,1.98
2023-02-08T14:18:40.779Z,1.36
2023-02-08T14:21:49.676Z,0.59
2023-02-08T14:25:04.936Z,0.70
2023-02-08T14:28:27.297Z,0.15
2023-02-08T14:31:41.401Z,0.55
2023-02-08T14:34:48.052Z,0.27
2023-02-08T14:38:36.364Z,0.26
2023-02-08T14:42:00.296Z,0.17
2023-02-08T14:45:07.601Z,0.01
2023-02-08T14:48:25.068Z,0.11
2023-02-08T14:51:35.753Z,-0.23
2023-02-08T14:54:49.961Z,-0.16
2023-02-08T14:57:58.725Z,-0.29
2023-02-08T15:01:14.537Z,-0.54
2023-02-08T15:04:22.872Z,-0.42
2023-02-08T15:07:36.730Z,-0.59
2023-02-08T15:10:46.057Z,-0.63
2023-02-08T15:13:54.235Z,-0.89
2023-02-08T15:17:00.731Z,-0.82
2023-02-08T15:20:22.001Z,-1.07
2023-02-08T15:23:28.301Z,-0.92
2023-02-08T15:26:35.115Z,-1.25
2023-02-08T15:29:45.676Z,-1.00
2023-02-08T15:32:52.100Z,-1.24
2023-02-08T15:36:02.808Z,-1.14
2023-02-08T15:39:16.517Z,-1.18
2023-02-08T15:42:25.446Z,-1.38
2023-02-08T15:45:31.812Z,-1.33
2023-02-08T15:48:41.617Z,-1.57
2023-02-08T15:51:51.131Z,-1.55
2023-02-08T15:54:57.737Z,-1.56
2023-02-08T15:58:08.590Z,-1.62
2023-02-08T16:01:19.369Z,-1.77
2023-02-08T16:04:27.130Z,-1.86
2023-02-08T16:07:38.971Z,-1.85
2023-02-08T16:10:49.033Z,-1.81
2023-02-08T16:13:58.293Z,-2.02
2023-02-08T16:17:04.613Z,-1.98
2023-02-08T16:20:30.775Z,-2.09
2023-02-08T16:23:40.713Z,-2.20
2023-02-08T16:26:50.759Z,-2.10
2023-02-08T16:29:57.834Z,-2.13
2023-02-08T16:33:09.284Z,-2.42
2023-02-08T16:36:24.037Z,-2.44
2023-02-08T16:39:53.383Z,-2.54
2023-02-08T16:43:17.783Z,-2.54
2023-02-08T16:46:27.806Z,-2.79
2023-02-08T16:49:33.999Z,-2.78
2023-02-08T16:52:40.546Z,-2.91
2023-02-08T16:55:48.359Z,-2.92
2023-02-08T16:58:54.780Z,-3.17
2023-02-08T17:02:01.100Z,-3.23
2023-02-08T17:05:07.589Z,-3.38
2023-02-08T17:08:17.392Z,-3.16
2023-02-08T17:11:25.652Z,-3.55
2023-02-08T17:14:31.982Z,-3.68
2023-02-08T17:17:38.300Z,-3.72
2023-02-08T17:20:45.376Z,-3.76
2023-02-08T17:23:51.681Z,-3.64
2023-02-08T17:26:59.262Z,-3.70
2023-02-08T17:30:06.361Z,-3.93
2023-02-08T17:33:18.313Z,-4.04
2023-02-08T17:36:25.066Z,-4.00
2023-02-08T17:39:31.667Z,-4.28
2023-02-08T17:42:40.329Z,-4.38
2023-02-08T17:45:47.077Z,-4.51
2023-02-08T17:48:54.063Z,-4.27
2023-02-08T17:52:00.409Z,-4.42
2023-02-08T17:55:07.844Z,-4.52
2023-02-08T17:58:15.797Z,-4.52
2023-02-08T18:01:24.478Z,-4.54
2023-02-08T18:04:30.827Z,-4.54
2023-02-08T18:07:37.283Z,-4.29
2023-02-08T18:10:43.798Z,-4.45
2023-02-08T18:13:53.286Z,-4.57
2023-02-08T18:16:59.974Z,-4.42
2023-02-08T18:20:07.773Z,-4.60
2023-02-08T18:23:14.426Z,-4.62
2023-02-08T18:26:23.467Z,-4.53
2023-02-08T18:29:31.398Z,-4.60
2023-02-08T18:32:37.846Z,-4.83
2023-02-08T18:35:49.698Z,-4.73
2023-02-08T18:38:57.138Z,-4.90
2023-02-08T18:42:03.503Z,-4.95
2023-02-08T18:45:11.780Z,-4.97
2023-02-08T18:48:18.113Z,-5.49
2023-02-08T18:51:27.188Z,-4.97
2023-02-08T18:54:33.266Z,-5.04
2023-02-08T18:57:40.172Z,-5.29
2023-02-08T19:00:47.806Z,-5.62
2023-02-08T19:03:55.080Z,-5.68
2023-02-08T19:07:02.310Z,-5.60
2023-02-08T19:10:09.635Z,-5.04
2023-02-08T19:13:16.866Z,-5.20
2023-02-08T19:16:25.334Z,-5.27
2023-02-08T19:19:32.119Z,-5.30
2023-02-08T19:22:38.338Z,-5.26
2023-02-08T19:25:45.382Z,-5.51
2023-02-08T19:28:52.208Z,-5.29
2023-02-08T19:32:00.362Z,-5.34
2023-02-08T19:35:07.202Z,-5.38
2023-02-08T19:38:13.877Z,-5.18
2023-02-08T19:41:22.520Z,-5.25
2023-02-08T19:44:30.761Z,-5.41
2023-02-08T19:47:50.696Z,-5.39
2023-02-08T19:50:59.559Z,-5.53
2023-02-08T19:54:10.181Z,-5.98
2023-02-08T19:57:16.975Z,-5.66
2023-02-08T20:00:24.370Z,-6.03
2023-02-08T20:03:32.303Z,-5.73
2023-02-08T20:06:39.745Z,-6.30
2023-02-08T20:09:46.142Z,-6.41
2023-02-08T20:12:52.729Z,-5.89
2023-02-08T20:16:00.886Z,-5.79
2023-02-08T20:19:11.353Z,-5.82
2023-02-08T20:22:17.750Z,-5.87
2023-02-08T20:25:24.965Z,-5.79
2023-02-08T20:28:31.536Z,-6.10
2023-02-08T20:31:41.129Z,-5.91
2023-02-08T20:34:59.057Z,-6.14
2023-02-08T20:38:06.522Z,-6.15
2023-02-08T20:41:15.396Z,-6.13
2023-02-08T20:44:21.684Z,-5.99
2023-02-08T20:47:29.991Z,-7.01
2023-02-08T20:50:39.583Z,-6.72
2023-02-08T20:53:47.583Z,-7.19
2023-02-08T20:56:55.000Z,-6.64
2023-02-08T21:00:01.226Z,-6.47
2023-02-08T21:03:07.667Z,-6.77
2023-02-08T21:06:17.392Z,-7.38
2023-02-08T21:09:24.145Z,-6.74
2023-02-08T21:12:31.624Z,-6.63
2023-02-08T21:15:43.112Z,-7.29
2023-02-08T21:18:49.440Z,-7.14
2023-02-08T21:21:58.249Z,-6.84
2023-02-08T21:25:04.616Z,-6.79
2023-02-08T21:28:10.956Z,-6.40
2023-02-08T21:31:19.921Z,-6.64
2023-02-08T21:34:26.423Z,-6.64
2023-02-08T21:37:36.010Z,-6.46
2023-02-08T21:40:42.861Z,-6.71
2023-02-08T21:43:50.392Z,-7.29
2023-02-08T21:46:56.406Z,-7.66
2023-02-08T21:50:20.074Z,-7.59
2023-02-08T21:53:44.464Z,-7.20
2023-02-08T21:56:50.542Z,-7.00
2023-02-08T21:59:59.558Z,-6.92
2023-02-08T22:03:05.846Z,-7.39
2023-02-08T22:06:11.897Z,-8.14
2023-02-08T22:09:20.714Z,-8.41
2023-02-08T22:12:27.116Z,-8.26
2023-02-08T22:15:35.158Z,-8.40
2023-02-08T22:18:41.704Z,-8.51
2023-02-08T22:21:47.890Z,-8.33
2023-02-08T22:24:55.566Z,-8.47
2023-02-08T22:28:01.859Z,-7.87
2023-02-08T22:31:08.249Z,-7.72
2023-02-08T22:34:14.291Z,-7.60
2023-02-08T22:37:20.308Z,-7.25
2023-02-08T22:40:28.261Z,-7.42
2023-02-08T22:43:34.352Z,-7.29
2023-02-08T22:46:40.389Z,-7.82
2023-02-08T22:49:46.449Z,-7.50
2023-02-08T22:52:52.241Z,-7.32
2023-02-08T22:55:59.866Z,-7.72
2023-02-08T22:59:05.892Z,-8.78
2023-02-08T23:02:12.113Z,-8.85
2023-02-08T23:05:18.528Z,-9.30
2023-02-08T23:08:24.946Z,-9.04
2023-02-08T23:11:32.611Z,-8.91
2023-02-08T23:14:39.185Z,-8.48
2023-02-08T23:17:45.501Z,-8.83
2023-02-08T23:20:52.096Z,-8.07
2023-02-08T23:23:58.453Z,-7.99
2023-02-08T23:27:05.737Z,-8.30
2023-02-08T23:30:13.503Z,-7.90
2023-02-08T23:33:19.590Z,-8.40
2023-02-08T23:36:25.779Z,-8.19
2023-02-08T23:39:34.821Z,-8.60
2023-02-08T23:42:42.413Z,-8.44
2023-02-08T23:45:48.963Z,-8.07
2023-02-08T23:48:55.570Z,-8.55
2023-02-08T23:52:01.554Z,-8.19
2023-02-08T23:55:08.634Z,-7.93
2023-02-08T23:58:16.072Z,-7.91
